Raiatea — V7VA3 — position and weather

sailwx.info

Track history (hours):
 
Tides and Currents Weather Stations Pressure Air Temp Water Temp Dewpoint Dewpoint Depression Visibility Wind Speed Wind Dir Waves Ship Positions

Raiatea

Last reported at 2015-May-29 11:33 UTC. Time now 2015-May-29 12:14 UTC.
Position N 39°41' E 119°57'.

Length 292 m; draft 9.5 m.

Type: Cargo ship. MMSI: 538004070.

Date/timePositionNaut miles runAvg speedWind from/ knotsBaromVisibWave heightAir tempDewpointWater temp
2015-May-29 11:33N 39°41' E 119°57'99 9.7
2015-May-29 01:19N 38°55' E 118°04'810.4
2015-May-29 00:33N 38°57' E 117°54'7 6.7
2015-May-28 23:33N 38°59' E 117°46'0 0.0
2015-May-28 22:30N 38°59' E 117°46'0 0.0
2015-May-28 21:29N 38°59' E 117°46'0 0.0
2015-May-28 20:30N 38°59' E 117°46'0 0.0
2015-May-28 19:30N 38°59' E 117°46'0 0.0
2015-May-28 18:30N 38°59' E 117°46'0 0.0
2015-May-28 17:30N 38°59' E 117°46'0 0.0
2015-May-28 16:29N 38°59' E 117°46'0 0.0
2015-May-28 15:30N 38°59' E 117°46'0 0.0
2015-May-28 14:29N 38°59' E 117°46'0 0.0
2015-May-28 13:30N 38°59' E 117°46'0 0.0
2015-May-28 12:24N 38°59' E 117°46'0 0.0
2015-May-28 11:30N 38°59' E 117°46'0 0.0
2015-May-28 10:30N 38°59' E 117°46'0 0.0
2015-May-28 09:30N 38°59' E 117°46'0 0.0
2015-May-28 08:30N 38°59' E 117°46'0 0.0
2015-May-28 07:30N 38°59' E 117°46'0 0.0
2015-May-28 06:30N 38°59' E 117°46'0 0.0
2015-May-28 05:30N 38°59' E 117°46'0 0.0
2015-May-28 04:30N 38°59' E 117°46'0 0.0
2015-May-28 03:30N 38°59' E 117°46'0 0.0
2015-May-28 02:30N 38°59' E 117°46'0 0.0
2015-May-28 01:30N 38°59' E 117°46'0 0.0
2015-May-28 00:30N 38°59' E 117°46'0 0.0
2015-May-27 23:29N 38°59' E 117°46'0 0.0
2015-May-27 22:23N 38°59' E 117°46'0 0.0
2015-May-27 21:30N 38°59' E 117°46'0 0.0
2015-May-27 20:18N 38°59' E 117°46'0 0.0
2015-May-27 19:29N 38°59' E 117°46'0 0.0
2015-May-27 18:24N 38°59' E 117°46'0 0.0
2015-May-27 17:30N 38°59' E 117°46'0 0.0
2015-May-27 16:24N 38°59' E 117°46'0 0.0
2015-May-27 15:18N 38°59' E 117°46'0 0.0
2015-May-27 14:30N 38°59' E 117°46'0 0.0
2015-May-27 13:30N 38°59' E 117°46'0 0.0
2015-May-27 12:29N 38°59' E 117°46'0 0.0
2015-May-27 11:30N 38°59' E 117°46'0 0.0
2015-May-27 10:30N 38°59' E 117°46'0 0.0
2015-May-27 09:30N 38°59' E 117°46'0 0.0
2015-May-27 08:30N 38°59' E 117°46'0 0.0
2015-May-27 07:24N 38°59' E 117°46'0 0.0
2015-May-27 06:30N 38°59' E 117°46'0 0.0
2015-May-27 05:24N 38°59' E 117°46'0 0.0
2015-May-27 04:30N 38°59' E 117°46'0 0.0
2015-May-27 03:30N 38°59' E 117°46'0 0.0
2015-May-27 02:24N 38°59' E 117°46'0 0.0
2015-May-27 01:24N 38°59' E 117°46'0 0.0
2015-May-27 00:30N 38°59' E 117°46'0 0.0
2015-May-26 23:30N 38°59' E 117°46'0 0.0
2015-May-26 22:24N 38°59' E 117°46'0 0.0
2015-May-26 21:30N 38°59' E 117°46'0 0.0
2015-May-26 20:29N 38°59' E 117°46'0 0.0
2015-May-26 19:30N 38°59' E 117°46'0 0.0
2015-May-26 18:30N 38°59' E 117°46'0 0.0
2015-May-26 17:29N 38°59' E 117°46'0 0.0
2015-May-26 16:30N 38°59' E 117°46'0 0.0
2015-May-26 15:29N 38°59' E 117°46'0 0.0
2015-May-26 14:30N 38°59' E 117°46'0 0.0
2015-May-26 13:24N 38°59' E 117°46'0 0.0
2015-May-26 12:30N 38°59' E 117°46'0 0.0
2015-May-26 11:30N 38°59' E 117°46'0 0.0
2015-May-26 10:30N 38°59' E 117°46'0 0.0
2015-May-26 09:30N 38°59' E 117°46'0 0.0
2015-May-26 08:30N 38°59' E 117°46'0 0.0
2015-May-26 07:30N 38°59' E 117°46'0 0.0
2015-May-26 06:30N 38°59' E 117°46'0 0.0
2015-May-26 05:30N 38°59' E 117°46'0 0.0
2015-May-26 04:30N 38°59' E 117°46'0 0.0
2015-May-26 03:30N 38°59' E 117°46'0 0.0
2015-May-26 02:30N 38°59' E 117°46'0 0.0
2015-May-26 01:30N 38°59' E 117°46'0 0.0
2015-May-26 00:33N 38°59' E 117°46'1 1.5
2015-May-25 23:33N 38°58' E 117°48'8 8.0
2015-May-25 22:33N 38°57' E 117°58'1311.1
2015-May-25 21:26N 38°52' E 118°13'3 2.5
2015-May-25 20:14N 38°51' E 118°17'15 8.0
2015-May-25 18:25N 38°50' E 118°35'9 9.3
2015-May-25 17:30N 38°49' E 118°46'9 9.0
2015-May-25 16:33N 38°48' E 118°57'9 9.1
2015-May-25 15:33N 38°48' E 119°09'9 9.2
2015-May-25 14:33N 38°47' E 119°21'24 9.8
2015-May-25 12:08N 38°44' E 119°51'610.4
2015-May-25 11:33N 38°42' E 119°58'1111.3
2015-May-25 10:33N 38°41' E 120°13'1212.0
2015-May-25 09:33N 38°40' E 120°28'1212.0
2015-May-25 08:33N 38°39' E 120°43'1211.9
2015-May-25 07:33N 38°35' E 120°58'1212.2
2015-May-25 06:33N 38°30' E 121°12'1311.6
2015-May-25 05:28N 38°25' E 121°27'2111.2
2015-May-25 03:33N 38°18' E 121°52'1110.9
2015-May-25 02:33N 38°14' E 122°05'1110.8
2015-May-25 01:33N 38°10' E 122°18'1110.8
2015-May-25 00:33N 38°06' E 122°30'1110.7
2015-May-24 23:33N 38°02' E 122°43'1110.5
2015-May-24 22:28N 37°59' E 122°57'2010.3
2015-May-24 20:33N 37°49' E 123°19'1110.4
2015-May-24 19:32N 37°40' E 123°27'1010.6
2015-May-24 18:33N 37°33' E 123°36'1010.0
2015-May-24 17:33N 37°23' E 123°41'1111.3
2015-May-24 16:33N 37°12' E 123°42'1211.6
2015-May-24 15:33N 37°01' E 123°44'1211.6
2015-May-24 14:33N 36°49' E 123°46'1211.5
2015-May-24 13:32N 36°38' E 123°50'1111.3
2015-May-24 12:33N 36°27' E 123°49'1111.3
2015-May-24 11:32N 36°15' E 123°50'1111.0
2015-May-24 10:33N 36°04' E 123°52'1210.9
2015-May-24 09:27N 35°53' E 123°53'1011.0
2015-May-24 08:31N 35°42' E 123°55'1211.2
2015-May-24 07:28N 35°31' E 123°57'1211.2
2015-May-24 06:26N 35°19' E 123°58'2210.9
2015-May-24 04:24N 34°57' E 124°01'  
Track history (hours):
 
Tides and Currents Weather Stations Pressure Air Temp Water Temp Dewpoint Dewpoint Depression Visibility Wind Speed Wind Dir Waves Ship Positions

Raiatea

Last reported at 2015-May-29 11:33 UTC. Time now 2015-May-29 12:14 UTC.
Position N 39°41' E 119°57'.

Length 292 m; draft 9.5 m.

Type: Cargo ship. MMSI: 538004070.

Date/timePositionNaut miles runAvg speedWind from/ knotsBaromVisibWave heightAir tempDewpointWater temp
2015-May-29 11:33N 39°41' E 119°57'99 9.7
2015-May-29 01:19N 38°55' E 118°04'810.4
2015-May-29 00:33N 38°57' E 117°54'7 6.7
2015-May-28 23:33N 38°59' E 117°46'0 0.0
2015-May-28 22:30N 38°59' E 117°46'0 0.0
2015-May-28 21:29N 38°59' E 117°46'0 0.0
2015-May-28 20:30N 38°59' E 117°46'0 0.0
2015-May-28 19:30N 38°59' E 117°46'0 0.0
2015-May-28 18:30N 38°59' E 117°46'0 0.0
2015-May-28 17:30N 38°59' E 117°46'0 0.0
2015-May-28 16:29N 38°59' E 117°46'0 0.0
2015-May-28 15:30N 38°59' E 117°46'0 0.0
2015-May-28 14:29N 38°59' E 117°46'0 0.0
2015-May-28 13:30N 38°59' E 117°46'0 0.0
2015-May-28 12:24N 38°59' E 117°46'0 0.0
2015-May-28 11:30N 38°59' E 117°46'0 0.0
2015-May-28 10:30N 38°59' E 117°46'0 0.0
2015-May-28 09:30N 38°59' E 117°46'0 0.0
2015-May-28 08:30N 38°59' E 117°46'0 0.0
2015-May-28 07:30N 38°59' E 117°46'0 0.0
2015-May-28 06:30N 38°59' E 117°46'0 0.0
2015-May-28 05:30N 38°59' E 117°46'0 0.0
2015-May-28 04:30N 38°59' E 117°46'0 0.0
2015-May-28 03:30N 38°59' E 117°46'0 0.0
2015-May-28 02:30N 38°59' E 117°46'0 0.0
2015-May-28 01:30N 38°59' E 117°46'0 0.0
2015-May-28 00:30N 38°59' E 117°46'0 0.0
2015-May-27 23:29N 38°59' E 117°46'0 0.0
2015-May-27 22:23N 38°59' E 117°46'0 0.0
2015-May-27 21:30N 38°59' E 117°46'0 0.0
2015-May-27 20:18N 38°59' E 117°46'0 0.0
2015-May-27 19:29N 38°59' E 117°46'0 0.0
2015-May-27 18:24N 38°59' E 117°46'0 0.0
2015-May-27 17:30N 38°59' E 117°46'0 0.0
2015-May-27 16:24N 38°59' E 117°46'0 0.0
2015-May-27 15:18N 38°59' E 117°46'0 0.0
2015-May-27 14:30N 38°59' E 117°46'0 0.0
2015-May-27 13:30N 38°59' E 117°46'0 0.0
2015-May-27 12:29N 38°59' E 117°46'0 0.0
2015-May-27 11:30N 38°59' E 117°46'0 0.0
2015-May-27 10:30N 38°59' E 117°46'0 0.0
2015-May-27 09:30N 38°59' E 117°46'0 0.0
2015-May-27 08:30N 38°59' E 117°46'0 0.0
2015-May-27 07:24N 38°59' E 117°46'0 0.0
2015-May-27 06:30N 38°59' E 117°46'0 0.0
2015-May-27 05:24N 38°59' E 117°46'0 0.0
2015-May-27 04:30N 38°59' E 117°46'0 0.0
2015-May-27 03:30N 38°59' E 117°46'0 0.0
2015-May-27 02:24N 38°59' E 117°46'0 0.0
2015-May-27 01:24N 38°59' E 117°46'0 0.0
2015-May-27 00:30N 38°59' E 117°46'0 0.0
2015-May-26 23:30N 38°59' E 117°46'0 0.0
2015-May-26 22:24N 38°59' E 117°46'0 0.0
2015-May-26 21:30N 38°59' E 117°46'0 0.0
2015-May-26 20:29N 38°59' E 117°46'0 0.0
2015-May-26 19:30N 38°59' E 117°46'0 0.0
2015-May-26 18:30N 38°59' E 117°46'0 0.0
2015-May-26 17:29N 38°59' E 117°46'0 0.0
2015-May-26 16:30N 38°59' E 117°46'0 0.0
2015-May-26 15:29N 38°59' E 117°46'0 0.0
2015-May-26 14:30N 38°59' E 117°46'0 0.0
2015-May-26 13:24N 38°59' E 117°46'0 0.0
2015-May-26 12:30N 38°59' E 117°46'0 0.0
2015-May-26 11:30N 38°59' E 117°46'0 0.0
2015-May-26 10:30N 38°59' E 117°46'0 0.0
2015-May-26 09:30N 38°59' E 117°46'0 0.0
2015-May-26 08:30N 38°59' E 117°46'0 0.0
2015-May-26 07:30N 38°59' E 117°46'0 0.0
2015-May-26 06:30N 38°59' E 117°46'0 0.0
2015-May-26 05:30N 38°59' E 117°46'0 0.0
2015-May-26 04:30N 38°59' E 117°46'0 0.0
2015-May-26 03:30N 38°59' E 117°46'0 0.0
2015-May-26 02:30N 38°59' E 117°46'0 0.0
2015-May-26 01:30N 38°59' E 117°46'0 0.0
2015-May-26 00:33N 38°59' E 117°46'1 1.5
2015-May-25 23:33N 38°58' E 117°48'8 8.0
2015-May-25 22:33N 38°57' E 117°58'1311.1
2015-May-25 21:26N 38°52' E 118°13'3 2.5
2015-May-25 20:14N 38°51' E 118°17'15 8.0
2015-May-25 18:25N 38°50' E 118°35'9 9.3
2015-May-25 17:30N 38°49' E 118°46'9 9.0
2015-May-25 16:33N 38°48' E 118°57'9 9.1
2015-May-25 15:33N 38°48' E 119°09'9 9.2
2015-May-25 14:33N 38°47' E 119°21'24 9.8
2015-May-25 12:08N 38°44' E 119°51'610.4
2015-May-25 11:33N 38°42' E 119°58'1111.3
2015-May-25 10:33N 38°41' E 120°13'1212.0
2015-May-25 09:33N 38°40' E 120°28'1212.0
2015-May-25 08:33N 38°39' E 120°43'1211.9
2015-May-25 07:33N 38°35' E 120°58'1212.2
2015-May-25 06:33N 38°30' E 121°12'1311.6
2015-May-25 05:28N 38°25' E 121°27'2111.2
2015-May-25 03:33N 38°18' E 121°52'1110.9
2015-May-25 02:33N 38°14' E 122°05'1110.8
2015-May-25 01:33N 38°10' E 122°18'1110.8
2015-May-25 00:33N 38°06' E 122°30'1110.7
2015-May-24 23:33N 38°02' E 122°43'1110.5
2015-May-24 22:28N 37°59' E 122°57'2010.3
2015-May-24 20:33N 37°49' E 123°19'1110.4
2015-May-24 19:32N 37°40' E 123°27'1010.6
2015-May-24 18:33N 37°33' E 123°36'1010.0
2015-May-24 17:33N 37°23' E 123°41'1111.3
2015-May-24 16:33N 37°12' E 123°42'1211.6
2015-May-24 15:33N 37°01' E 123°44'1211.6
2015-May-24 14:33N 36°49' E 123°46'1211.5
2015-May-24 13:32N 36°38' E 123°50'1111.3
2015-May-24 12:33N 36°27' E 123°49'1111.3
2015-May-24 11:32N 36°15' E 123°50'1111.0
2015-May-24 10:33N 36°04' E 123°52'1210.9
2015-May-24 09:27N 35°53' E 123°53'1011.0
2015-May-24 08:31N 35°42' E 123°55'1211.2
2015-May-24 07:28N 35°31' E 123°57'1211.2
2015-May-24 06:26N 35°19' E 123°58'2210.9
2015-May-24 04:24N 34°57' E 124°01'  

Dump ship's entire track history